createdAt,value
2018-06-08T00:01:33.647Z,12.17
2018-06-08T00:04:02.736Z,15.70
2018-06-08T00:06:31.807Z,15.17
2018-06-08T00:09:00.914Z,13.27
2018-06-08T00:11:30.010Z,13.60
2018-06-08T00:13:59.105Z,17.30
2018-06-08T00:16:28.211Z,14.60
2018-06-08T00:18:57.300Z,13.50
2018-06-08T00:21:26.476Z,14.40
2018-06-08T00:23:55.667Z,13.57
2018-06-08T00:26:24.763Z,12.83
2018-06-08T00:28:53.865Z,14.30
2018-06-08T00:31:22.996Z,13.97
2018-06-08T00:33:52.052Z,14.07
2018-06-08T00:36:21.167Z,13.30
2018-06-08T00:38:50.247Z,13.80
2018-06-08T00:41:19.435Z,12.20
2018-06-08T00:43:48.522Z,13.27
2018-06-08T00:46:17.631Z,13.10
2018-06-08T00:48:46.716Z,13.20
2018-06-08T00:51:15.828Z,14.20
2018-06-08T00:53:45.015Z,14.10
2018-06-08T00:56:25.660Z,16.40
2018-06-08T00:58:54.763Z,13.80
2018-06-08T01:01:23.854Z,13.97
2018-06-08T01:03:52.943Z,12.53
2018-06-08T01:06:22.039Z,13.10
2018-06-08T01:08:51.160Z,12.60
2018-06-08T01:11:20.254Z,11.63
2018-06-08T01:13:49.313Z,14.57
2018-06-08T01:16:18.398Z,12.20
2018-06-08T01:18:47.551Z,12.20
2018-06-08T01:21:16.680Z,12.80
2018-06-08T01:23:45.777Z,13.07
2018-06-08T01:26:14.903Z,13.13
2018-06-08T01:28:44.031Z,13.17
2018-06-08T01:31:13.120Z,12.90
2018-06-08T01:33:42.236Z,14.90
2018-06-08T01:36:11.322Z,15.80
2018-06-08T01:38:40.512Z,14.20
2018-06-08T01:41:09.608Z,16.00
2018-06-08T01:43:38.720Z,14.50
2018-06-08T01:46:10.004Z,14.67
2018-06-08T01:48:39.128Z,16.17
2018-06-08T01:51:08.205Z,14.40
2018-06-08T01:53:37.331Z,16.60
2018-06-08T01:56:06.407Z,15.37
2018-06-08T01:58:35.503Z,17.00
2018-06-08T02:01:04.595Z,15.30
2018-06-08T02:03:33.835Z,16.30
2018-06-08T02:06:02.952Z,18.67
2018-06-08T02:08:32.041Z,15.87
2018-06-08T02:11:01.113Z,15.73
2018-06-08T02:13:30.186Z,14.40
2018-06-08T02:15:59.005Z,15.67
2018-06-08T02:18:27.948Z,15.03
2018-06-08T02:20:57.072Z,17.93
2018-06-08T02:23:26.162Z,15.80
2018-06-08T02:25:55.252Z,18.37
2018-06-08T02:28:24.347Z,18.23
2018-06-08T02:30:53.432Z,19.80
2018-06-08T02:33:22.519Z,19.07
2018-06-08T02:35:51.644Z,19.57
2018-06-08T02:38:20.728Z,17.50
2018-06-08T02:40:49.811Z,18.17
2018-06-08T02:43:18.936Z,16.90
2018-06-08T02:45:48.039Z,16.60
2018-06-08T02:48:16.876Z,17.80
2018-06-08T02:50:45.874Z,18.27
2018-06-08T02:53:15.030Z,17.90
2018-06-08T02:55:44.158Z,16.80
2018-06-08T02:58:13.314Z,16.30
2018-06-08T03:00:42.427Z,17.07
2018-06-08T03:03:11.536Z,17.13
2018-06-08T03:05:40.641Z,15.97
2018-06-08T03:08:09.718Z,17.50
2018-06-08T03:10:38.843Z,18.73
2018-06-08T03:13:07.973Z,14.77
2018-06-08T03:15:37.076Z,17.70
2018-06-08T03:18:06.143Z,16.50
2018-06-08T03:20:35.320Z,14.87
2018-06-08T03:23:04.451Z,14.63
2018-06-08T03:25:33.578Z,13.37
2018-06-08T03:28:02.704Z,14.10
2018-06-08T03:30:31.779Z,14.67
2018-06-08T03:33:00.896Z,15.27
2018-06-08T03:35:30.010Z,17.50
2018-06-08T03:37:59.143Z,17.80
2018-06-08T03:40:28.252Z,14.30
2018-06-08T03:42:57.349Z,15.87
2018-06-08T03:45:26.416Z,14.40
2018-06-08T03:47:55.539Z,13.43
2018-06-08T03:50:24.627Z,16.90
2018-06-08T03:52:53.707Z,15.87
2018-06-08T03:55:22.803Z,20.37
2018-06-08T03:57:58.638Z,17.07
2018-06-08T04:00:27.736Z,12.00
2018-06-08T04:02:56.556Z,19.50
2018-06-08T04:05:25.534Z,16.90
2018-06-08T04:07:54.608Z,14.23
2018-06-08T04:10:23.708Z,15.43
2018-06-08T04:12:52.793Z,13.17
2018-06-08T04:15:21.892Z,14.40
2018-06-08T04:17:51.002Z,16.20
2018-06-08T04:20:20.147Z,15.03
2018-06-08T04:22:49.243Z,13.07
2018-06-08T04:25:18.339Z,12.37
2018-06-08T04:27:47.574Z,10.90
2018-06-08T04:30:16.657Z,15.13
2018-06-08T04:32:45.823Z,13.93
2018-06-08T04:35:14.857Z,14.40
2018-06-08T04:37:43.959Z,13.20
2018-06-08T04:40:13.102Z,11.87
2018-06-08T04:42:42.199Z,12.13
2018-06-08T04:45:11.307Z,10.60
2018-06-08T04:47:40.400Z,12.07
2018-06-08T04:50:09.556Z,10.67
2018-06-08T04:52:38.413Z,11.93
2018-06-08T04:55:07.549Z,12.60
2018-06-08T04:57:36.793Z,14.07
2018-06-08T05:00:05.984Z,11.60
2018-06-08T05:02:35.111Z,10.30
2018-06-08T05:05:04.228Z,11.30
2018-06-08T05:07:33.325Z,10.97
2018-06-08T05:10:02.451Z,11.40
2018-06-08T05:12:31.539Z,12.70
2018-06-08T05:15:00.623Z,10.67
2018-06-08T05:17:29.707Z,13.33
2018-06-08T05:19:58.846Z,10.40
2018-06-08T05:22:28.108Z,10.80
2018-06-08T05:24:56.964Z,11.10
2018-06-08T05:27:26.032Z,10.50
2018-06-08T05:29:55.143Z,11.30
2018-06-08T05:32:24.322Z,11.67
2018-06-08T05:34:53.458Z,13.83
2018-06-08T05:37:22.588Z,11.37
2018-06-08T05:39:51.666Z,11.53
2018-06-08T05:42:20.779Z,17.00
2018-06-08T05:44:49.892Z,14.63
2018-06-08T05:47:18.992Z,15.13
2018-06-08T05:49:48.189Z,12.30
2018-06-08T05:52:17.283Z,19.73
2018-06-08T05:54:46.382Z,15.83
2018-06-08T05:57:15.592Z,13.27
2018-06-08T05:59:44.714Z,12.83
2018-06-08T06:02:13.816Z,14.17
2018-06-08T06:04:42.927Z,14.90
2018-06-08T06:07:12.051Z,14.53
2018-06-08T06:09:41.167Z,15.93
2018-06-08T06:12:10.263Z,12.90
2018-06-08T06:14:39.420Z,15.87
2018-06-08T06:17:08.542Z,14.77
2018-06-08T06:19:37.684Z,13.50
2018-06-08T06:22:06.808Z,12.73
2018-06-08T06:24:35.923Z,12.33
2018-06-08T06:27:05.039Z,12.40
2018-06-08T06:29:34.095Z,11.70
2018-06-08T06:32:03.199Z,13.30
2018-06-08T06:34:32.460Z,11.03
2018-06-08T06:37:01.565Z,15.30
2018-06-08T06:39:30.781Z,11.37
2018-06-08T06:41:59.863Z,14.13
2018-06-08T06:44:28.936Z,13.67
2018-06-08T06:46:58.021Z,14.23
2018-06-08T06:49:27.091Z,13.17
2018-06-08T06:51:56.239Z,14.80
2018-06-08T06:54:25.331Z,13.17
2018-06-08T06:56:54.491Z,15.00
2018-06-08T06:59:23.473Z,12.83
2018-06-08T07:01:52.483Z,12.60
2018-06-08T07:04:21.502Z,14.17
2018-06-08T07:06:50.618Z,13.03
2018-06-08T07:09:19.724Z,12.30
2018-06-08T07:11:48.841Z,14.73
2018-06-08T07:14:18.015Z,14.87
2018-06-08T07:16:47.147Z,16.60
2018-06-08T07:19:16.304Z,16.87
2018-06-08T07:21:45.400Z,14.77
2018-06-08T07:24:14.476Z,16.53
2018-06-08T07:26:43.616Z,15.20
2018-06-08T07:29:12.735Z,18.77
2018-06-08T07:31:41.946Z,15.70
2018-06-08T07:34:10.984Z,13.73
2018-06-08T07:36:40.116Z,16.40
2018-06-08T07:39:09.691Z,16.87
2018-06-08T07:41:38.780Z,16.27
2018-06-08T07:44:07.885Z,16.73
2018-06-08T07:46:36.951Z,15.57
2018-06-08T07:49:05.848Z,14.57
2018-06-08T07:51:34.910Z,11.37
2018-06-08T07:54:04.463Z,11.23
2018-06-08T07:56:33.546Z,13.23
2018-06-08T07:59:02.435Z,14.93
2018-06-08T08:01:31.453Z,15.40
2018-06-08T08:04:00.599Z,14.47
2018-06-08T08:06:29.711Z,16.27
2018-06-08T08:08:58.823Z,14.73
2018-06-08T08:11:27.926Z,13.40
2018-06-08T08:13:57.211Z,13.40
2018-06-08T08:16:26.301Z,12.10
2018-06-08T08:18:55.402Z,11.53
2018-06-08T08:21:24.547Z,12.33
2018-06-08T08:23:53.629Z,12.10
2018-06-08T08:26:22.797Z,10.87
2018-06-08T08:28:51.867Z,13.03
2018-06-08T08:31:20.969Z,10.93
2018-06-08T08:33:50.107Z,11.60
2018-06-08T08:36:19.235Z,11.80
2018-06-08T08:38:48.355Z,11.63
2018-06-08T08:41:17.476Z,12.27
2018-06-08T08:43:46.535Z,13.27
2018-06-08T08:46:15.661Z,12.43
2018-06-08T08:48:44.768Z,11.73
2018-06-08T08:51:13.918Z,11.17
2018-06-08T08:53:43.065Z,10.13
2018-06-08T08:56:12.131Z,11.70
2018-06-08T08:58:42.293Z,9.80
2018-06-08T09:01:11.406Z,10.47
2018-06-08T09:03:40.620Z,12.57
2018-06-08T09:06:09.676Z,9.87
2018-06-08T09:08:38.791Z,12.40
2018-06-08T09:11:07.967Z,10.17
2018-06-08T09:13:37.075Z,10.70
2018-06-08T09:16:06.409Z,11.47
2018-06-08T09:18:35.578Z,12.40
2018-06-08T09:21:04.715Z,11.63
2018-06-08T09:23:33.832Z,10.23
2018-06-08T09:26:02.655Z,10.57
2018-06-08T09:28:31.638Z,12.60
2018-06-08T09:31:00.776Z,11.40
2018-06-08T09:33:29.911Z,12.43
2018-06-08T09:35:59.061Z,11.23
2018-06-08T09:38:28.167Z,10.10
2018-06-08T09:40:57.312Z,11.67
2018-06-08T09:43:26.445Z,9.53
2018-06-08T09:45:55.562Z,11.37
2018-06-08T09:48:25.303Z,11.60
2018-06-08T09:50:54.592Z,10.40
2018-06-08T09:53:23.695Z,9.90
2018-06-08T09:55:52.766Z,10.03
2018-06-08T09:58:21.912Z,11.60
2018-06-08T10:00:51.303Z,10.70
2018-06-08T10:03:20.380Z,9.97
2018-06-08T10:05:49.443Z,11.17
2018-06-08T10:08:18.539Z,12.00
2018-06-08T10:10:47.615Z,11.17
2018-06-08T10:13:16.755Z,12.13
2018-06-08T10:15:45.905Z,11.27
2018-06-08T10:18:15.053Z,12.50
2018-06-08T10:20:44.166Z,11.63
2018-06-08T10:23:13.304Z,11.33
2018-06-08T10:25:42.550Z,12.77
2018-06-08T10:28:11.664Z,11.80
2018-06-08T10:30:40.539Z,10.17
2018-06-08T10:33:09.547Z,12.30
2018-06-08T10:35:38.640Z,11.37
2018-06-08T10:38:07.722Z,12.40
2018-06-08T10:40:36.835Z,10.10
2018-06-08T10:43:06.185Z,15.00
2018-06-08T10:45:35.309Z,10.27
2018-06-08T10:48:04.465Z,10.10
2018-06-08T10:50:33.464Z,11.10
2018-06-08T10:53:02.552Z,14.10
2018-06-08T10:55:31.656Z,11.73
2018-06-08T10:58:00.825Z,10.40
2018-06-08T11:00:30.012Z,10.60
2018-06-08T11:02:59.145Z,10.20
2018-06-08T11:05:28.344Z,11.63
2018-06-08T11:07:57.444Z,9.70
2018-06-08T11:10:26.544Z,15.80
2018-06-08T11:12:55.646Z,11.60
2018-06-08T11:15:24.728Z,10.20
2018-06-08T11:17:53.978Z,13.60
2018-06-08T11:20:23.067Z,10.10
2018-06-08T11:22:52.199Z,11.23
2018-06-08T11:25:21.471Z,9.77
2018-06-08T11:27:50.697Z,12.33
2018-06-08T11:30:19.871Z,10.77
2018-06-08T11:32:48.976Z,11.07
2018-06-08T11:35:18.109Z,10.20
2018-06-08T11:37:47.341Z,10.43
2018-06-08T11:40:16.427Z,10.43
2018-06-08T11:42:45.515Z,9.63
2018-06-08T11:45:14.400Z,9.47
2018-06-08T11:47:43.382Z,9.77
2018-06-08T11:50:12.519Z,9.47
2018-06-08T11:52:41.627Z,9.93
2018-06-08T11:55:10.745Z,9.80
2018-06-08T11:57:39.826Z,9.63
2018-06-08T12:00:08.923Z,11.70
2018-06-08T12:02:38.039Z,10.90
2018-06-08T12:05:07.163Z,12.80
2018-06-08T12:07:36.238Z,10.03
2018-06-08T12:10:05.455Z,9.53
2018-06-08T12:12:34.551Z,11.00
2018-06-08T12:15:03.710Z,12.07
2018-06-08T12:17:32.968Z,10.33
2018-06-08T12:20:02.124Z,9.83
2018-06-08T12:22:31.252Z,9.93
2018-06-08T12:25:00.099Z,9.93
2018-06-08T12:27:29.083Z,10.87
2018-06-08T12:29:58.181Z,9.40
2018-06-08T12:32:27.343Z,9.77
2018-06-08T12:34:56.202Z,10.20
2018-06-08T12:37:25.191Z,11.70
2018-06-08T12:39:54.280Z,11.53
2018-06-08T12:42:23.400Z,10.80
2018-06-08T12:44:52.479Z,11.13
2018-06-08T12:47:21.617Z,11.03
2018-06-08T12:49:50.707Z,9.97
2018-06-08T12:52:19.786Z,10.53
2018-06-08T12:54:48.885Z,13.20
2018-06-08T12:57:17.994Z,12.63
2018-06-08T12:59:47.102Z,13.30
2018-06-08T13:02:16.299Z,12.30
2018-06-08T13:04:45.418Z,11.23
2018-06-08T13:07:14.592Z,13.03
2018-06-08T13:09:43.858Z,12.90
2018-06-08T13:12:13.037Z,11.30
2018-06-08T13:14:42.136Z,11.93
2018-06-08T13:17:11.255Z,12.80
2018-06-08T13:19:40.395Z,13.80
2018-06-08T13:22:09.523Z,14.77
2018-06-08T13:24:38.889Z,15.73
2018-06-08T13:27:08.091Z,13.63
2018-06-08T13:29:37.288Z,12.57
2018-06-08T13:32:06.401Z,13.20
2018-06-08T13:34:35.577Z,16.23
2018-06-08T13:37:04.737Z,16.47
2018-06-08T13:39:33.876Z,14.43
2018-06-08T13:42:02.963Z,15.63
2018-06-08T13:44:32.127Z,11.67
2018-06-08T13:47:01.231Z,11.47
2018-06-08T13:49:30.963Z,13.10
2018-06-08T13:52:00.131Z,13.27
2018-06-08T13:54:30.037Z,11.13
2018-06-08T13:56:59.151Z,14.40
2018-06-08T13:59:28.245Z,15.73
2018-06-08T14:01:57.372Z,12.93
2018-06-08T14:04:26.483Z,12.80
2018-06-08T14:06:55.568Z,20.93
2018-06-08T14:09:24.653Z,13.67
2018-06-08T14:11:53.803Z,13.17
2018-06-08T14:14:22.804Z,12.67
2018-06-08T14:16:51.897Z,12.00
2018-06-08T14:19:21.015Z,11.27
2018-06-08T14:21:50.147Z,14.20
2018-06-08T14:24:19.233Z,15.20
2018-06-08T14:26:48.308Z,13.00
2018-06-08T14:29:17.393Z,13.47
2018-06-08T14:31:46.512Z,13.80
2018-06-08T14:34:15.586Z,12.87
2018-06-08T14:36:44.680Z,13.63
2018-06-08T14:39:13.757Z,13.77
2018-06-08T14:41:42.805Z,11.70
2018-06-08T14:44:11.948Z,15.30
2018-06-08T14:46:41.051Z,13.83
2018-06-08T14:49:10.177Z,19.40
2018-06-08T14:51:39.261Z,19.30
2018-06-08T14:54:08.368Z,21.40
2018-06-08T14:56:37.467Z,14.30
2018-06-08T14:59:06.571Z,15.70
2018-06-08T15:01:35.654Z,12.90
2018-06-08T15:04:04.764Z,13.70
2018-06-08T15:06:33.919Z,17.07
2018-06-08T15:09:03.095Z,16.17
2018-06-08T15:11:32.355Z,11.60
2018-06-08T15:14:01.536Z,14.00
2018-06-08T15:16:30.664Z,13.70
2018-06-08T15:18:59.777Z,11.57
2018-06-08T15:21:28.906Z,10.10
2018-06-08T15:23:58.260Z,13.73
2018-06-08T15:26:27.357Z,11.60
2018-06-08T15:28:56.456Z,12.20
2018-06-08T15:31:25.563Z,14.00
2018-06-08T15:33:54.636Z,13.03
2018-06-08T15:36:23.808Z,14.23
2018-06-08T15:38:52.893Z,13.63
2018-06-08T15:41:21.980Z,14.13
2018-06-08T15:43:51.264Z,12.80
2018-06-08T15:46:20.101Z,16.17
2018-06-08T15:48:49.047Z,11.73
2018-06-08T15:51:18.139Z,12.60
2018-06-08T15:53:47.265Z,13.20
2018-06-08T15:56:16.351Z,11.77
2018-06-08T15:58:45.455Z,13.87
2018-06-08T16:01:14.559Z,14.33
2018-06-08T16:03:43.678Z,14.20
2018-06-08T16:06:12.785Z,11.97
2018-06-08T16:08:41.880Z,11.13
2018-06-08T16:11:10.961Z,12.57
2018-06-08T16:13:40.040Z,14.60
2018-06-08T16:16:09.156Z,15.33
2018-06-08T16:18:38.254Z,14.03
2018-06-08T16:21:07.456Z,16.03
2018-06-08T16:23:36.531Z,15.17
2018-06-08T16:26:05.400Z,13.80
2018-06-08T16:28:34.244Z,14.90
2018-06-08T16:31:03.296Z,15.60
2018-06-08T16:33:32.395Z,12.63
2018-06-08T16:36:01.508Z,12.60
2018-06-08T16:38:30.675Z,11.40
2018-06-08T16:40:59.858Z,14.30
2018-06-08T16:43:28.990Z,15.13
2018-06-08T16:45:58.103Z,15.90
2018-06-08T16:48:27.180Z,14.07
2018-06-08T16:50:56.268Z,13.33
2018-06-08T16:53:25.382Z,11.77
2018-06-08T16:55:54.510Z,10.57
2018-06-08T16:58:23.623Z,12.73
2018-06-08T17:00:52.704Z,13.50
2018-06-08T17:03:21.784Z,13.90
2018-06-08T17:05:50.863Z,11.93
2018-06-08T17:08:20.040Z,12.90
2018-06-08T17:10:49.117Z,12.90
2018-06-08T17:13:18.330Z,15.50
2018-06-08T17:15:47.482Z,15.27
2018-06-08T17:18:16.555Z,13.70
2018-06-08T17:20:45.655Z,18.20
2018-06-08T17:23:14.763Z,14.47
2018-06-08T17:25:43.832Z,17.20
2018-06-08T17:28:12.996Z,16.47
2018-06-08T17:30:42.223Z,16.33
2018-06-08T17:33:11.296Z,15.37
2018-06-08T17:35:40.387Z,13.67
2018-06-08T17:38:09.508Z,14.97
2018-06-08T17:40:38.546Z,18.53
2018-06-08T17:43:07.753Z,15.07
2018-06-08T17:45:36.849Z,18.17
2018-06-08T17:48:05.940Z,15.87
2018-06-08T17:50:35.023Z,14.97
2018-06-08T17:53:04.116Z,16.43
2018-06-08T17:55:33.199Z,15.93
2018-06-08T17:58:02.296Z,16.50
2018-06-08T18:00:31.391Z,15.40
2018-06-08T18:03:00.495Z,15.63
2018-06-08T18:05:29.592Z,13.50
2018-06-08T18:07:58.690Z,14.77
2018-06-08T18:10:27.803Z,13.53
2018-06-08T18:12:57.075Z,16.77
2018-06-08T18:15:26.191Z,14.00
2018-06-08T18:17:55.400Z,14.23
2018-06-08T18:20:24.569Z,14.53
2018-06-08T18:22:53.658Z,16.33
2018-06-08T18:25:22.793Z,16.67
2018-06-08T18:27:51.895Z,13.30
2018-06-08T18:30:21.277Z,14.20
2018-06-08T18:32:50.416Z,13.83
2018-06-08T18:35:19.446Z,14.00
2018-06-08T18:37:48.470Z,15.80
2018-06-08T18:40:17.603Z,13.60
2018-06-08T18:42:46.805Z,13.23
2018-06-08T18:45:15.963Z,13.50
2018-06-08T18:47:45.071Z,13.77
2018-06-08T18:50:14.163Z,13.70
2018-06-08T18:52:43.271Z,14.07
2018-06-08T18:55:12.383Z,12.57
2018-06-08T18:57:41.498Z,13.90
2018-06-08T19:00:10.576Z,13.20
2018-06-08T19:02:39.709Z,15.43
2018-06-08T19:05:08.828Z,12.60
2018-06-08T19:07:37.927Z,13.60
2018-06-08T19:10:07.068Z,13.80
2018-06-08T19:12:36.148Z,14.40
2018-06-08T19:15:05.443Z,13.90
2018-06-08T19:17:34.610Z,13.83
2018-06-08T19:20:03.724Z,13.63
2018-06-08T19:22:32.811Z,14.40
2018-06-08T19:25:01.975Z,14.00
2018-06-08T19:27:30.806Z,14.87
2018-06-08T19:29:59.767Z,14.07
2018-06-08T19:32:28.922Z,14.30
2018-06-08T19:34:58.095Z,15.43
2018-06-08T19:37:27.216Z,13.83
2018-06-08T19:39:56.348Z,14.37
2018-06-08T19:42:25.853Z,14.70
2018-06-08T19:44:54.939Z,14.30
2018-06-08T19:47:24.097Z,15.60
2018-06-08T19:49:53.289Z,15.07
2018-06-08T19:52:22.437Z,15.37
2018-06-08T19:54:51.531Z,17.37
2018-06-08T19:57:20.638Z,16.73
2018-06-08T19:59:49.527Z,17.90
2018-06-08T20:02:18.591Z,16.23
2018-06-08T20:04:47.686Z,16.80
2018-06-08T20:07:16.635Z,17.20
2018-06-08T20:09:45.611Z,17.70
2018-06-08T20:12:14.739Z,17.10
2018-06-08T20:14:43.858Z,14.23
2018-06-08T20:17:12.988Z,14.20
2018-06-08T20:19:42.126Z,16.43
2018-06-08T20:22:11.254Z,16.50
2018-06-08T20:24:40.429Z,15.77
2018-06-08T20:27:09.524Z,15.77
2018-06-08T20:29:38.669Z,16.47
2018-06-08T20:32:07.847Z,16.93
2018-06-08T20:34:36.666Z,15.73
2018-06-08T20:37:05.685Z,15.40
2018-06-08T20:39:34.789Z,14.97
2018-06-08T20:42:03.915Z,14.47
2018-06-08T20:44:33.060Z,15.40
2018-06-08T20:47:02.495Z,19.60
2018-06-08T20:49:31.611Z,18.50
2018-06-08T20:52:00.719Z,14.20
2018-06-08T20:54:29.831Z,13.40
2018-06-08T20:57:11.636Z,17.40
2018-06-08T20:59:40.756Z,16.00
2018-06-08T21:02:09.938Z,14.43
2018-06-08T21:04:38.991Z,13.63
2018-06-08T21:07:08.100Z,17.47
2018-06-08T21:09:37.224Z,14.73
2018-06-08T21:12:06.377Z,17.60
2018-06-08T21:14:35.652Z,17.80
2018-06-08T21:17:04.795Z,15.67
2018-06-08T21:19:34.111Z,15.53
2018-06-08T21:22:03.262Z,18.60
2018-06-08T21:24:32.396Z,16.90
2018-06-08T21:27:01.532Z,15.33
2018-06-08T21:29:30.632Z,15.37
2018-06-08T21:31:59.751Z,18.57
2018-06-08T21:34:28.830Z,16.37
2018-06-08T21:36:58.025Z,17.70
2018-06-08T21:39:27.178Z,19.27
2018-06-08T21:41:56.327Z,20.80
2018-06-08T21:44:25.438Z,21.73
2018-06-08T21:46:54.523Z,20.47
2018-06-08T21:49:23.619Z,20.63
2018-06-08T21:51:52.794Z,18.13
2018-06-08T21:54:21.964Z,22.67
2018-06-08T21:56:51.171Z,21.63
2018-06-08T21:59:20.283Z,22.00
2018-06-08T22:01:49.399Z,13.53
2018-06-08T22:04:18.479Z,15.93
2018-06-08T22:06:47.827Z,18.83
2018-06-08T22:09:18.320Z,20.53
2018-06-08T22:11:47.394Z,20.67
2018-06-08T22:14:16.540Z,20.73
2018-06-08T22:16:45.867Z,23.47
2018-06-08T22:19:14.975Z,22.10
2018-06-08T22:21:44.079Z,21.67
2018-06-08T22:24:13.194Z,21.60
2018-06-08T22:26:42.287Z,17.93
2018-06-08T22:29:11.398Z,20.50
2018-06-08T22:31:40.569Z,17.50
2018-06-08T22:34:09.693Z,23.10
2018-06-08T22:36:38.802Z,20.97
2018-06-08T22:39:07.975Z,21.47
2018-06-08T22:41:37.079Z,21.70
2018-06-08T22:44:06.175Z,22.47
2018-06-08T22:46:35.324Z,25.33
2018-06-08T22:49:04.543Z,23.60
2018-06-08T22:51:33.627Z,22.30
2018-06-08T22:54:02.792Z,23.60
2018-06-08T22:56:31.884Z,20.70
2018-06-08T23:31:46.458Z,26.50
2018-06-08T23:34:15.578Z,26.97
2018-06-08T23:36:44.681Z,26.40
2018-06-08T23:39:13.946Z,24.00
2018-06-08T23:41:42.772Z,25.70
2018-06-08T23:44:11.757Z,25.07
2018-06-08T23:46:40.884Z,25.53
2018-06-08T23:49:10.027Z,25.87
2018-06-08T23:51:38.859Z,25.70
2018-06-08T23:54:07.851Z,25.87
2018-06-08T23:56:36.954Z,24.87
2018-06-08T23:59:06.155Z,28.30
